sensor_id;sensor_type;location;lat;lon;timestamp;temperature;humidity
58809;DHT22;44579;51.672;7.834;2022-08-21T00:00:16;19.50;66.20
58809;DHT22;44579;51.672;7.834;2022-08-21T00:02:58;19.40;66.20
58809;DHT22;44579;51.672;7.834;2022-08-21T00:05:26;19.50;66.30
58809;DHT22;44579;51.672;7.834;2022-08-21T00:07:54;19.40;66.30
58809;DHT22;44579;51.672;7.834;2022-08-21T00:10:22;19.40;66.40
58809;DHT22;44579;51.672;7.834;2022-08-21T00:12:49;19.30;66.30
58809;DHT22;44579;51.672;7.834;2022-08-21T00:15:22;19.40;66.40
58809;DHT22;44579;51.672;7.834;2022-08-21T00:17:49;19.30;66.30
58809;DHT22;44579;51.672;7.834;2022-08-21T00:20:17;19.30;66.40
58809;DHT22;44579;51.672;7.834;2022-08-21T00:22:44;19.30;66.60
58809;DHT22;44579;51.672;7.834;2022-08-21T00:25:13;19.20;66.50
58809;DHT22;44579;51.672;7.834;2022-08-21T00:27:41;19.20;66.60
58809;DHT22;44579;51.672;7.834;2022-08-21T00:30:10;19.20;66.50
58809;DHT22;44579;51.672;7.834;2022-08-21T00:32:48;19.20;66.50
58809;DHT22;44579;51.672;7.834;2022-08-21T00:35:18;19.20;66.70
58809;DHT22;44579;51.672;7.834;2022-08-21T00:37:45;19.10;66.70
58809;DHT22;44579;51.672;7.834;2022-08-21T00:40:15;19.10;66.70
58809;DHT22;44579;51.672;7.834;2022-08-21T00:42:43;19.20;66.70
58809;DHT22;44579;51.672;7.834;2022-08-21T00:45:20;19.10;66.70
58809;DHT22;44579;51.672;7.834;2022-08-21T00:47:48;19.10;66.70
58809;DHT22;44579;51.672;7.834;2022-08-21T00:50:16;19.10;66.80
58809;DHT22;44579;51.672;7.834;2022-08-21T00:52:50;19.10;66.90
58809;DHT22;44579;51.672;7.834;2022-08-21T00:55:18;19.10;66.90
58809;DHT22;44579;51.672;7.834;2022-08-21T00:57:51;19.10;66.90
58809;DHT22;44579;51.672;7.834;2022-08-21T01:00:25;19.10;66.80
58809;DHT22;44579;51.672;7.834;2022-08-21T01:02:56;19.10;66.80
58809;DHT22;44579;51.672;7.834;2022-08-21T01:05:24;19.10;66.90
58809;DHT22;44579;51.672;7.834;2022-08-21T01:07:52;19.10;67.00
58809;DHT22;44579;51.672;7.834;2022-08-21T01:10:19;19.10;67.10
58809;DHT22;44579;51.672;7.834;2022-08-21T01:12:51;19.10;67.10
58809;DHT22;44579;51.672;7.834;2022-08-21T01:15:20;19.10;67.10
58809;DHT22;44579;51.672;7.834;2022-08-21T01:17:49;19.10;67.10
58809;DHT22;44579;51.672;7.834;2022-08-21T01:20:16;19.10;67.30
58809;DHT22;44579;51.672;7.834;2022-08-21T01:22:43;19.10;67.30
58809;DHT22;44579;51.672;7.834;2022-08-21T01:25:13;19.10;67.40
58809;DHT22;44579;51.672;7.834;2022-08-21T01:27:42;19.10;67.50
58809;DHT22;44579;51.672;7.834;2022-08-21T01:30:13;19.10;67.50
58809;DHT22;44579;51.672;7.834;2022-08-21T01:32:42;19.10;67.70
58809;DHT22;44579;51.672;7.834;2022-08-21T01:35:09;19.10;67.80
58809;DHT22;44579;51.672;7.834;2022-08-21T01:37:38;19.10;67.90
58809;DHT22;44579;51.672;7.834;2022-08-21T01:40:06;19.10;67.90
58809;DHT22;44579;51.672;7.834;2022-08-21T01:42:33;19.10;67.90
58809;DHT22;44579;51.672;7.834;2022-08-21T01:45:00;19.10;67.90
58809;DHT22;44579;51.672;7.834;2022-08-21T01:47:27;19.10;67.90
58809;DHT22;44579;51.672;7.834;2022-08-21T01:49:54;19.10;67.90
58809;DHT22;44579;51.672;7.834;2022-08-21T01:52:21;19.10;68.00
58809;DHT22;44579;51.672;7.834;2022-08-21T01:54:48;19.10;67.90
58809;DHT22;44579;51.672;7.834;2022-08-21T01:57:21;19.10;68.00
58809;DHT22;44579;51.672;7.834;2022-08-21T01:59:52;19.20;68.10
58809;DHT22;44579;51.672;7.834;2022-08-21T02:02:19;19.10;68.10
58809;DHT22;44579;51.672;7.834;2022-08-21T02:04:46;19.20;68.00
58809;DHT22;44579;51.672;7.834;2022-08-21T02:07:13;19.20;68.00
58809;DHT22;44579;51.672;7.834;2022-08-21T02:09:40;19.30;68.10
58809;DHT22;44579;51.672;7.834;2022-08-21T02:12:10;19.20;68.10
58809;DHT22;44579;51.672;7.834;2022-08-21T02:14:38;19.20;68.20
58809;DHT22;44579;51.672;7.834;2022-08-21T02:17:05;19.30;68.20
58809;DHT22;44579;51.672;7.834;2022-08-21T02:19:37;19.30;68.20
58809;DHT22;44579;51.672;7.834;2022-08-21T02:22:08;19.30;68.10
58809;DHT22;44579;51.672;7.834;2022-08-21T02:24:37;19.30;68.10
58809;DHT22;44579;51.672;7.834;2022-08-21T02:27:22;19.40;68.30
58809;DHT22;44579;51.672;7.834;2022-08-21T02:29:55;19.40;68.30
58809;DHT22;44579;51.672;7.834;2022-08-21T02:32:22;19.40;68.30
58809;DHT22;44579;51.672;7.834;2022-08-21T02:34:49;19.40;68.40
58809;DHT22;44579;51.672;7.834;2022-08-21T02:37:17;19.40;69.40
58809;DHT22;44579;51.672;7.834;2022-08-21T02:39:43;19.30;68.50
58809;DHT22;44579;51.672;7.834;2022-08-21T02:42:11;19.30;68.60
58809;DHT22;44579;51.672;7.834;2022-08-21T02:44:38;19.30;68.60
58809;DHT22;44579;51.672;7.834;2022-08-21T02:47:05;19.20;68.80
58809;DHT22;44579;51.672;7.834;2022-08-21T02:49:32;19.20;68.90
58809;DHT22;44579;51.672;7.834;2022-08-21T02:51:59;19.10;68.80
58809;DHT22;44579;51.672;7.834;2022-08-21T02:54:26;19.10;68.90
58809;DHT22;44579;51.672;7.834;2022-08-21T02:56:53;19.10;69.00
58809;DHT22;44579;51.672;7.834;2022-08-21T02:59:20;19.10;69.10
58809;DHT22;44579;51.672;7.834;2022-08-21T03:01:47;19.10;69.00
58809;DHT22;44579;51.672;7.834;2022-08-21T03:04:14;19.10;69.90
58809;DHT22;44579;51.672;7.834;2022-08-21T03:06:41;19.10;69.10
58809;DHT22;44579;51.672;7.834;2022-08-21T03:09:08;19.10;69.20
58809;DHT22;44579;51.672;7.834;2022-08-21T03:11:35;19.10;69.10
58809;DHT22;44579;51.672;7.834;2022-08-21T03:14:02;19.10;69.10
58809;DHT22;44579;51.672;7.834;2022-08-21T03:16:29;19.10;69.20
58809;DHT22;44579;51.672;7.834;2022-08-21T03:19:01;19.00;69.10
58809;DHT22;44579;51.672;7.834;2022-08-21T03:21:28;19.00;69.20
58809;DHT22;44579;51.672;7.834;2022-08-21T03:23:55;19.00;69.30
58809;DHT22;44579;51.672;7.834;2022-08-21T03:26:22;18.90;69.40
58809;DHT22;44579;51.672;7.834;2022-08-21T03:28:50;18.90;69.50
58809;DHT22;44579;51.672;7.834;2022-08-21T03:31:18;18.90;69.50
58809;DHT22;44579;51.672;7.834;2022-08-21T03:33:44;18.90;69.60
58809;DHT22;44579;51.672;7.834;2022-08-21T03:36:12;18.80;69.60
58809;DHT22;44579;51.672;7.834;2022-08-21T03:38:39;18.80;69.70
58809;DHT22;44579;51.672;7.834;2022-08-21T03:41:07;18.70;69.80
58809;DHT22;44579;51.672;7.834;2022-08-21T03:43:35;18.60;69.80
58809;DHT22;44579;51.672;7.834;2022-08-21T03:46:02;18.60;70.00
58809;DHT22;44579;51.672;7.834;2022-08-21T03:48:31;18.60;70.20
58809;DHT22;44579;51.672;7.834;2022-08-21T03:50:58;18.50;70.10
58809;DHT22;44579;51.672;7.834;2022-08-21T03:53:25;18.40;70.20
58809;DHT22;44579;51.672;7.834;2022-08-21T03:55:53;18.40;70.20
58809;DHT22;44579;51.672;7.834;2022-08-21T03:58:23;18.40;70.30
58809;DHT22;44579;51.672;7.834;2022-08-21T04:00:54;18.40;70.30
58809;DHT22;44579;51.672;7.834;2022-08-21T04:03:22;18.30;70.40
58809;DHT22;44579;51.672;7.834;2022-08-21T04:05:49;18.30;70.60
58809;DHT22;44579;51.672;7.834;2022-08-21T04:08:17;18.20;70.60
58809;DHT22;44579;51.672;7.834;2022-08-21T04:10:47;18.10;70.70
58809;DHT22;44579;51.672;7.834;2022-08-21T04:13:15;18.10;70.80
58809;DHT22;44579;51.672;7.834;2022-08-21T04:15:42;18.10;70.90
58809;DHT22;44579;51.672;7.834;2022-08-21T04:18:10;18.00;70.90
58809;DHT22;44579;51.672;7.834;2022-08-21T04:20:37;18.00;71.10
58809;DHT22;44579;51.672;7.834;2022-08-21T04:23:05;18.00;71.20
58809;DHT22;44579;51.672;7.834;2022-08-21T04:25:32;17.90;71.20
58809;DHT22;44579;51.672;7.834;2022-08-21T04:27:59;17.90;71.20
58809;DHT22;44579;51.672;7.834;2022-08-21T04:30:26;17.90;71.20
58809;DHT22;44579;51.672;7.834;2022-08-21T04:32:56;17.90;71.30
58809;DHT22;44579;51.672;7.834;2022-08-21T04:35:26;17.90;71.40
58809;DHT22;44579;51.672;7.834;2022-08-21T04:37:53;17.80;71.40
58809;DHT22;44579;51.672;7.834;2022-08-21T04:40:22;17.80;71.50
58809;DHT22;44579;51.672;7.834;2022-08-21T04:42:53;17.80;71.50
58809;DHT22;44579;51.672;7.834;2022-08-21T04:45:25;17.80;71.60
58809;DHT22;44579;51.672;7.834;2022-08-21T04:47:55;17.80;71.60
58809;DHT22;44579;51.672;7.834;2022-08-21T04:50:36;17.80;71.80
58809;DHT22;44579;51.672;7.834;2022-08-21T04:53:12;17.80;71.80
58809;DHT22;44579;51.672;7.834;2022-08-21T04:55:41;17.80;72.00
58809;DHT22;44579;51.672;7.834;2022-08-21T04:58:13;17.70;72.00
58809;DHT22;44579;51.672;7.834;2022-08-21T05:00:41;17.80;72.20
58809;DHT22;44579;51.672;7.834;2022-08-21T05:03:09;17.80;71.50
58809;DHT22;44579;51.672;7.834;2022-08-21T05:05:39;17.90;72.30
58809;DHT22;44579;51.672;7.834;2022-08-21T05:08:09;18.00;72.50
58809;DHT22;44579;51.672;7.834;2022-08-21T05:10:41;18.10;72.70
58809;DHT22;44579;51.672;7.834;2022-08-21T05:13:12;18.20;72.90
58809;DHT22;44579;51.672;7.834;2022-08-21T05:15:40;18.40;73.30
58809;DHT22;44579;51.672;7.834;2022-08-21T05:18:07;18.50;73.50
58809;DHT22;44579;51.672;7.834;2022-08-21T05:20:34;18.70;73.60
58809;DHT22;44579;51.672;7.834;2022-08-21T05:23:10;18.80;73.80
58809;DHT22;44579;51.672;7.834;2022-08-21T05:25:37;18.90;74.00
58809;DHT22;44579;51.672;7.834;2022-08-21T05:28:05;19.10;74.30
58809;DHT22;44579;51.672;7.834;2022-08-21T05:30:34;19.20;75.30
58809;DHT22;44579;51.672;7.834;2022-08-21T05:33:04;19.30;74.80
58809;DHT22;44579;51.672;7.834;2022-08-21T05:35:32;19.40;75.00
58809;DHT22;44579;51.672;7.834;2022-08-21T05:38:00;19.60;75.00
58809;DHT22;44579;51.672;7.834;2022-08-21T05:40:28;19.70;75.00
58809;DHT22;44579;51.672;7.834;2022-08-21T05:42:56;19.80;75.00
58809;DHT22;44579;51.672;7.834;2022-08-21T05:45:29;20.00;75.00
58809;DHT22;44579;51.672;7.834;2022-08-21T05:48:14;20.10;75.10
58809;DHT22;44579;51.672;7.834;2022-08-21T05:50:43;20.10;75.50
58809;DHT22;44579;51.672;7.834;2022-08-21T05:53:10;20.20;75.60
58809;DHT22;44579;51.672;7.834;2022-08-21T05:55:37;20.30;75.60
58809;DHT22;44579;51.672;7.834;2022-08-21T05:58:11;20.30;75.30
58809;DHT22;44579;51.672;7.834;2022-08-21T06:00:38;20.30;75.10
58809;DHT22;44579;51.672;7.834;2022-08-21T06:03:20;20.40;74.50
58809;DHT22;44579;51.672;7.834;2022-08-21T06:05:48;20.50;73.80
58809;DHT22;44579;51.672;7.834;2022-08-21T06:08:19;20.50;73.70
58809;DHT22;44579;51.672;7.834;2022-08-21T06:10:48;20.50;73.50
58809;DHT22;44579;51.672;7.834;2022-08-21T06:13:18;20.50;73.40
58809;DHT22;44579;51.672;7.834;2022-08-21T06:15:46;20.50;73.20
58809;DHT22;44579;51.672;7.834;2022-08-21T06:18:13;20.50;72.90
58809;DHT22;44579;51.672;7.834;2022-08-21T06:20:41;20.40;72.60
58809;DHT22;44579;51.672;7.834;2022-08-21T06:23:07;20.40;72.40
58809;DHT22;44579;51.672;7.834;2022-08-21T06:25:35;20.40;72.20
58809;DHT22;44579;51.672;7.834;2022-08-21T06:28:06;20.40;72.20
58809;DHT22;44579;51.672;7.834;2022-08-21T06:30:35;20.30;72.20
58809;DHT22;44579;51.672;7.834;2022-08-21T06:33:03;20.30;72.20
58809;DHT22;44579;51.672;7.834;2022-08-21T06:35:30;20.30;72.00
58809;DHT22;44579;51.672;7.834;2022-08-21T06:38:01;20.30;71.90
58809;DHT22;44579;51.672;7.834;2022-08-21T06:40:29;20.30;71.70
58809;DHT22;44579;51.672;7.834;2022-08-21T06:43:12;20.40;71.60
58809;DHT22;44579;51.672;7.834;2022-08-21T06:45:41;20.40;71.50
58809;DHT22;44579;51.672;7.834;2022-08-21T06:48:08;20.40;71.40
58809;DHT22;44579;51.672;7.834;2022-08-21T06:50:36;20.40;71.20
58809;DHT22;44579;51.672;7.834;2022-08-21T06:53:06;20.50;71.20
58809;DHT22;44579;51.672;7.834;2022-08-21T06:55:33;20.50;71.10
58809;DHT22;44579;51.672;7.834;2022-08-21T06:58:00;20.50;71.00
58809;DHT22;44579;51.672;7.834;2022-08-21T07:00:28;20.60;70.90
58809;DHT22;44579;51.672;7.834;2022-08-21T07:02:55;20.60;70.80
58809;DHT22;44579;51.672;7.834;2022-08-21T07:05:25;20.60;70.70
58809;DHT22;44579;51.672;7.834;2022-08-21T07:07:53;20.70;70.70
58809;DHT22;44579;51.672;7.834;2022-08-21T07:10:20;20.80;70.60
58809;DHT22;44579;51.672;7.834;2022-08-21T07:12:49;20.80;70.40
58809;DHT22;44579;51.672;7.834;2022-08-21T07:15:28;20.90;70.30
58809;DHT22;44579;51.672;7.834;2022-08-21T07:17:57;20.90;70.10
58809;DHT22;44579;51.672;7.834;2022-08-21T07:20:24;21.00;70.10
58809;DHT22;44579;51.672;7.834;2022-08-21T07:22:51;20.90;69.90
58809;DHT22;44579;51.672;7.834;2022-08-21T07:25:21;21.00;70.10
58809;DHT22;44579;51.672;7.834;2022-08-21T07:27:48;20.90;70.10
58809;DHT22;44579;51.672;7.834;2022-08-21T07:30:15;21.00;70.20
58809;DHT22;44579;51.672;7.834;2022-08-21T07:32:42;21.00;70.10
58809;DHT22;44579;51.672;7.834;2022-08-21T07:35:09;21.10;70.00
58809;DHT22;44579;51.672;7.834;2022-08-21T07:37:36;21.10;70.00
58809;DHT22;44579;51.672;7.834;2022-08-21T07:40:04;21.20;70.00
58809;DHT22;44579;51.672;7.834;2022-08-21T07:42:32;21.20;69.80
58809;DHT22;44579;51.672;7.834;2022-08-21T07:44:59;21.30;69.70
58809;DHT22;44579;51.672;7.834;2022-08-21T07:47:26;21.30;69.60
58809;DHT22;44579;51.672;7.834;2022-08-21T07:50:10;21.30;69.50
58809;DHT22;44579;51.672;7.834;2022-08-21T07:52:38;21.40;69.40
58809;DHT22;44579;51.672;7.834;2022-08-21T07:55:06;21.30;69.30
58809;DHT22;44579;51.672;7.834;2022-08-21T07:57:33;21.40;69.20
58809;DHT22;44579;51.672;7.834;2022-08-21T08:00:01;21.40;69.20
58809;DHT22;44579;51.672;7.834;2022-08-21T08:02:38;21.40;68.80
58809;DHT22;44579;51.672;7.834;2022-08-21T08:05:07;21.40;68.90
58809;DHT22;44579;51.672;7.834;2022-08-21T08:07:35;21.50;68.70
58809;DHT22;44579;51.672;7.834;2022-08-21T08:10:05;21.50;68.50
58809;DHT22;44579;51.672;7.834;2022-08-21T08:12:38;21.60;68.50
58809;DHT22;44579;51.672;7.834;2022-08-21T08:15:08;21.70;68.30
58809;DHT22;44579;51.672;7.834;2022-08-21T08:17:35;21.70;68.20
58809;DHT22;44579;51.672;7.834;2022-08-21T08:20:06;21.70;68.00
58809;DHT22;44579;51.672;7.834;2022-08-21T08:22:34;21.80;67.90
58809;DHT22;44579;51.672;7.834;2022-08-21T08:25:01;21.80;67.50
58809;DHT22;44579;51.672;7.834;2022-08-21T08:27:34;21.80;67.50
58809;DHT22;44579;51.672;7.834;2022-08-21T08:30:07;21.80;67.40
58809;DHT22;44579;51.672;7.834;2022-08-21T08:32:34;21.90;67.00
58809;DHT22;44579;51.672;7.834;2022-08-21T08:35:02;22.00;66.90
58809;DHT22;44579;51.672;7.834;2022-08-21T08:37:29;22.00;66.70
58809;DHT22;44579;51.672;7.834;2022-08-21T08:40:00;22.10;66.70
58809;DHT22;44579;51.672;7.834;2022-08-21T08:42:33;22.20;66.50
58809;DHT22;44579;51.672;7.834;2022-08-21T08:45:17;22.30;66.40
58809;DHT22;44579;51.672;7.834;2022-08-21T08:47:52;22.40;66.20
58809;DHT22;44579;51.672;7.834;2022-08-21T08:53:02;22.40;66.10
58809;DHT22;44579;51.672;7.834;2022-08-21T08:55:37;22.40;66.10
58809;DHT22;44579;51.672;7.834;2022-08-21T08:58:05;22.40;65.90
58809;DHT22;44579;51.672;7.834;2022-08-21T09:00:33;22.40;66.70
58809;DHT22;44579;51.672;7.834;2022-08-21T09:03:02;22.40;65.90
58809;DHT22;44579;51.672;7.834;2022-08-21T09:05:47;22.40;65.80
58809;DHT22;44579;51.672;7.834;2022-08-21T09:08:39;22.50;65.70
58809;DHT22;44579;51.672;7.834;2022-08-21T09:11:29;22.50;65.30
58809;DHT22;44579;51.672;7.834;2022-08-21T09:22:40;22.50;65.10
58809;DHT22;44579;51.672;7.834;2022-08-21T09:25:24;22.60;65.00
58809;DHT22;44579;51.672;7.834;2022-08-21T09:27:52;22.70;64.70
58809;DHT22;44579;51.672;7.834;2022-08-21T09:30:26;22.70;64.40
58809;DHT22;44579;51.672;7.834;2022-08-21T09:32:53;22.80;64.20
58809;DHT22;44579;51.672;7.834;2022-08-21T09:35:24;22.90;63.90
58809;DHT22;44579;51.672;7.834;2022-08-21T09:37:59;22.90;63.30
58809;DHT22;44579;51.672;7.834;2022-08-21T09:43:17;23.00;62.50
58809;DHT22;44579;51.672;7.834;2022-08-21T09:45:47;23.10;62.40
58809;DHT22;44579;51.672;7.834;2022-08-21T09:48:22;23.20;62.50
58809;DHT22;44579;51.672;7.834;2022-08-21T09:50:53;23.20;63.40
58809;DHT22;44579;51.672;7.834;2022-08-21T09:53:33;23.10;62.40
58809;DHT22;44579;51.672;7.834;2022-08-21T09:56:26;23.20;62.60
58809;DHT22;44579;51.672;7.834;2022-08-21T09:59:27;23.40;62.20
58809;DHT22;44579;51.672;7.834;2022-08-21T10:04:54;23.60;61.80
58809;DHT22;44579;51.672;7.834;2022-08-21T10:07:28;23.70;61.60
58809;DHT22;44579;51.672;7.834;2022-08-21T10:16:05;23.70;62.40
58809;DHT22;44579;51.672;7.834;2022-08-21T10:22:25;23.70;62.10
58809;DHT22;44579;51.672;7.834;2022-08-21T10:38:43;23.50;60.90
58809;DHT22;44579;51.672;7.834;2022-08-21T10:44:25;23.60;60.70
58809;DHT22;44579;51.672;7.834;2022-08-21T10:47:08;23.60;60.40
58809;DHT22;44579;51.672;7.834;2022-08-21T10:53:05;23.70;59.90
58809;DHT22;44579;51.672;7.834;2022-08-21T11:01:26;23.50;58.80
58809;DHT22;44579;51.672;7.834;2022-08-21T11:06:47;23.50;58.80
58809;DHT22;44579;51.672;7.834;2022-08-21T11:09:22;23.50;58.80
58809;DHT22;44579;51.672;7.834;2022-08-21T11:12:01;23.50;58.80
58809;DHT22;44579;51.672;7.834;2022-08-21T11:14:54;23.60;58.80
58809;DHT22;44579;51.672;7.834;2022-08-21T11:17:33;23.60;58.50
58809;DHT22;44579;51.672;7.834;2022-08-21T11:20:15;23.60;58.50
58809;DHT22;44579;51.672;7.834;2022-08-21T11:23:11;23.60;58.20
58809;DHT22;44579;51.672;7.834;2022-08-21T11:25:44;23.70;58.10
58809;DHT22;44579;51.672;7.834;2022-08-21T11:28:24;23.70;58.00
58809;DHT22;44579;51.672;7.834;2022-08-21T11:34:05;23.90;57.60
58809;DHT22;44579;51.672;7.834;2022-08-21T11:36:51;23.80;57.70
58809;DHT22;44579;51.672;7.834;2022-08-21T11:39:49;23.80;57.40
58809;DHT22;44579;51.672;7.834;2022-08-21T11:42:34;23.90;56.60
58809;DHT22;44579;51.672;7.834;2022-08-21T11:51:17;23.80;56.20
58809;DHT22;44579;51.672;7.834;2022-08-21T11:53:51;23.80;56.00
58809;DHT22;44579;51.672;7.834;2022-08-21T11:56:34;23.80;56.20
58809;DHT22;44579;51.672;7.834;2022-08-21T11:59:11;23.90;56.20
58809;DHT22;44579;51.672;7.834;2022-08-21T12:01:43;23.90;56.10
58809;DHT22;44579;51.672;7.834;2022-08-21T12:04:33;23.90;55.90
58809;DHT22;44579;51.672;7.834;2022-08-21T12:07:14;24.00;55.90
58809;DHT22;44579;51.672;7.834;2022-08-21T12:09:54;24.00;55.90
58809;DHT22;44579;51.672;7.834;2022-08-21T12:12:31;24.10;55.70
58809;DHT22;44579;51.672;7.834;2022-08-21T12:25:42;24.40;55.00
58809;DHT22;44579;51.672;7.834;2022-08-21T12:28:13;24.50;54.90
58809;DHT22;44579;51.672;7.834;2022-08-21T12:30:45;24.40;54.60
58809;DHT22;44579;51.672;7.834;2022-08-21T12:36:20;24.50;54.50
58809;DHT22;44579;51.672;7.834;2022-08-21T12:38:52;24.40;54.50
58809;DHT22;44579;51.672;7.834;2022-08-21T12:44:04;24.60;54.30
58809;DHT22;44579;51.672;7.834;2022-08-21T12:46:51;24.60;54.20
58809;DHT22;44579;51.672;7.834;2022-08-21T12:49:32;24.70;54.40
58809;DHT22;44579;51.672;7.834;2022-08-21T12:54:49;24.70;55.10
58809;DHT22;44579;51.672;7.834;2022-08-21T12:57:22;24.80;54.60
58809;DHT22;44579;51.672;7.834;2022-08-21T12:59:54;24.80;54.00
58809;DHT22;44579;51.672;7.834;2022-08-21T13:02:26;24.90;53.70
58809;DHT22;44579;51.672;7.834;2022-08-21T13:04:56;24.90;53.30
58809;DHT22;44579;51.672;7.834;2022-08-21T13:07:31;24.80;51.50
58809;DHT22;44579;51.672;7.834;2022-08-21T13:10:16;24.90;51.70
58809;DHT22;44579;51.672;7.834;2022-08-21T13:12:44;24.90;52.00
58809;DHT22;44579;51.672;7.834;2022-08-21T13:15:13;24.90;52.40
58809;DHT22;44579;51.672;7.834;2022-08-21T13:17:46;24.90;51.70
58809;DHT22;44579;51.672;7.834;2022-08-21T13:20:26;24.90;50.60
58809;DHT22;44579;51.672;7.834;2022-08-21T13:22:54;25.00;50.70
58809;DHT22;44579;51.672;7.834;2022-08-21T13:25:24;25.00;51.10
58809;DHT22;44579;51.672;7.834;2022-08-21T13:30:27;24.90;51.30
58809;DHT22;44579;51.672;7.834;2022-08-21T13:32:59;24.80;50.80
58809;DHT22;44579;51.672;7.834;2022-08-21T13:35:36;24.90;50.90
58809;DHT22;44579;51.672;7.834;2022-08-21T13:38:05;24.90;50.90
58809;DHT22;44579;51.672;7.834;2022-08-21T13:40:45;24.90;51.00
58809;DHT22;44579;51.672;7.834;2022-08-21T13:43:19;24.90;51.00
58809;DHT22;44579;51.672;7.834;2022-08-21T13:45:53;24.90;51.60
58809;DHT22;44579;51.672;7.834;2022-08-21T13:48:22;24.90;50.50
58809;DHT22;44579;51.672;7.834;2022-08-21T13:50:50;24.90;50.70
58809;DHT22;44579;51.672;7.834;2022-08-21T13:53:30;25.00;50.70
58809;DHT22;44579;51.672;7.834;2022-08-21T13:55:59;25.00;50.40
58809;DHT22;44579;51.672;7.834;2022-08-21T13:58:42;25.00;50.50
58809;DHT22;44579;51.672;7.834;2022-08-21T14:04:23;25.10;49.60
58809;DHT22;44579;51.672;7.834;2022-08-21T14:06:51;25.00;49.40
58809;DHT22;44579;51.672;7.834;2022-08-21T14:09:30;25.10;49.60
58809;DHT22;44579;51.672;7.834;2022-08-21T14:12:11;25.10;49.60
58809;DHT22;44579;51.672;7.834;2022-08-21T14:14:50;25.10;49.60
58809;DHT22;44579;51.672;7.834;2022-08-21T14:17:35;25.10;49.70
58809;DHT22;44579;51.672;7.834;2022-08-21T14:20:06;25.10;49.30
58809;DHT22;44579;51.672;7.834;2022-08-21T14:25:13;25.10;49.60
58809;DHT22;44579;51.672;7.834;2022-08-21T14:27:53;25.20;49.10
58809;DHT22;44579;51.672;7.834;2022-08-21T14:30:28;25.20;49.00
58809;DHT22;44579;51.672;7.834;2022-08-21T14:32:56;25.20;49.10
58809;DHT22;44579;51.672;7.834;2022-08-21T14:35:23;25.20;49.90
58809;DHT22;44579;51.672;7.834;2022-08-21T14:37:51;25.20;49.20
58809;DHT22;44579;51.672;7.834;2022-08-21T14:40:20;25.20;49.20
58809;DHT22;44579;51.672;7.834;2022-08-21T14:42:48;25.10;49.00
58809;DHT22;44579;51.672;7.834;2022-08-21T14:45:25;25.20;48.10
58809;DHT22;44579;51.672;7.834;2022-08-21T14:47:57;25.20;47.50
58809;DHT22;44579;51.672;7.834;2022-08-21T14:50:25;25.20;46.80
58809;DHT22;44579;51.672;7.834;2022-08-21T14:52:54;25.20;46.00
58809;DHT22;44579;51.672;7.834;2022-08-21T14:55:21;25.20;45.20
58809;DHT22;44579;51.672;7.834;2022-08-21T14:57:54;25.20;45.00
58809;DHT22;44579;51.672;7.834;2022-08-21T15:00:24;25.10;45.20
58809;DHT22;44579;51.672;7.834;2022-08-21T15:03:02;25.10;45.50
58809;DHT22;44579;51.672;7.834;2022-08-21T15:05:31;25.10;45.70
58809;DHT22;44579;51.672;7.834;2022-08-21T15:08:00;25.20;45.70
58809;DHT22;44579;51.672;7.834;2022-08-21T15:10:32;25.10;45.90
58809;DHT22;44579;51.672;7.834;2022-08-21T15:13:01;25.20;46.00
58809;DHT22;44579;51.672;7.834;2022-08-21T15:15:35;25.10;45.80
58809;DHT22;44579;51.672;7.834;2022-08-21T15:18:05;25.10;46.10
58809;DHT22;44579;51.672;7.834;2022-08-21T15:20:33;25.10;46.40
58809;DHT22;44579;51.672;7.834;2022-08-21T15:23:00;25.00;46.50
58809;DHT22;44579;51.672;7.834;2022-08-21T15:25:30;25.00;46.10
58809;DHT22;44579;51.672;7.834;2022-08-21T15:27:58;24.90;46.00
58809;DHT22;44579;51.672;7.834;2022-08-21T15:30:26;24.90;46.30
58809;DHT22;44579;51.672;7.834;2022-08-21T15:32:54;24.90;46.00
58809;DHT22;44579;51.672;7.834;2022-08-21T15:35:21;24.80;46.00
58809;DHT22;44579;51.672;7.834;2022-08-21T15:37:49;24.80;46.10
58809;DHT22;44579;51.672;7.834;2022-08-21T15:40:20;24.70;46.00
58809;DHT22;44579;51.672;7.834;2022-08-21T15:42:48;24.80;46.70
58809;DHT22;44579;51.672;7.834;2022-08-21T15:45:15;24.90;45.80
58809;DHT22;44579;51.672;7.834;2022-08-21T15:47:43;24.90;45.90
58809;DHT22;44579;51.672;7.834;2022-08-21T15:50:12;24.90;46.00
58809;DHT22;44579;51.672;7.834;2022-08-21T15:52:39;24.90;46.10
58809;DHT22;44579;51.672;7.834;2022-08-21T15:55:07;25.00;46.20
58809;DHT22;44579;51.672;7.834;2022-08-21T15:57:35;25.00;46.20
58809;DHT22;44579;51.672;7.834;2022-08-21T16:00:12;25.10;46.30
58809;DHT22;44579;51.672;7.834;2022-08-21T16:02:47;25.20;46.40
58809;DHT22;44579;51.672;7.834;2022-08-21T16:05:15;25.20;46.40
58809;DHT22;44579;51.672;7.834;2022-08-21T16:07:43;25.20;46.30
58809;DHT22;44579;51.672;7.834;2022-08-21T16:10:11;25.30;46.40
58809;DHT22;44579;51.672;7.834;2022-08-21T16:12:51;25.40;46.50
58809;DHT22;44579;51.672;7.834;2022-08-21T16:15:19;25.40;46.50
58809;DHT22;44579;51.672;7.834;2022-08-21T16:17:49;25.40;46.70
58809;DHT22;44579;51.672;7.834;2022-08-21T16:20:22;25.40;46.90
58809;DHT22;44579;51.672;7.834;2022-08-21T16:22:52;25.40;46.90
58809;DHT22;44579;51.672;7.834;2022-08-21T16:25:20;25.50;46.90
58809;DHT22;44579;51.672;7.834;2022-08-21T16:27:55;25.60;46.80
58809;DHT22;44579;51.672;7.834;2022-08-21T16:30:27;25.70;46.70
58809;DHT22;44579;51.672;7.834;2022-08-21T16:32:55;25.80;46.60
58809;DHT22;44579;51.672;7.834;2022-08-21T16:35:23;25.80;46.60
58809;DHT22;44579;51.672;7.834;2022-08-21T16:37:50;25.80;46.60
58809;DHT22;44579;51.672;7.834;2022-08-21T16:40:20;25.70;46.60
58809;DHT22;44579;51.672;7.834;2022-08-21T16:42:49;25.70;46.60
58809;DHT22;44579;51.672;7.834;2022-08-21T16:45:21;25.70;46.50
58809;DHT22;44579;51.672;7.834;2022-08-21T16:47:48;25.80;46.60
58809;DHT22;44579;51.672;7.834;2022-08-21T16:50:24;25.70;46.60
58809;DHT22;44579;51.672;7.834;2022-08-21T16:52:51;25.80;46.80
58809;DHT22;44579;51.672;7.834;2022-08-21T16:55:19;25.80;46.70
58809;DHT22;44579;51.672;7.834;2022-08-21T16:57:46;25.80;46.70
58809;DHT22;44579;51.672;7.834;2022-08-21T17:00:16;25.70;46.50
58809;DHT22;44579;51.672;7.834;2022-08-21T17:02:50;25.70;46.70
58809;DHT22;44579;51.672;7.834;2022-08-21T17:05:22;25.70;46.70
58809;DHT22;44579;51.672;7.834;2022-08-21T17:07:52;25.60;46.60
58809;DHT22;44579;51.672;7.834;2022-08-21T17:10:20;25.60;46.60
58809;DHT22;44579;51.672;7.834;2022-08-21T17:12:53;25.60;46.60
58809;DHT22;44579;51.672;7.834;2022-08-21T17:15:26;25.50;46.60
58809;DHT22;44579;51.672;7.834;2022-08-21T17:17:56;25.50;46.60
58809;DHT22;44579;51.672;7.834;2022-08-21T17:20:24;25.40;46.60
58809;DHT22;44579;51.672;7.834;2022-08-21T17:22:56;25.40;46.60
58809;DHT22;44579;51.672;7.834;2022-08-21T17:25:27;25.40;46.60